x

Santa Monica Basin - 33nm Wsw Of Santa Monica, Ca (46025) Weather Station

3:20 - Thu 17th Aug 2017 All times are PDT. -7 hours from GMT.

  • Wind
    9mph, 11mph gusts
  • Sea Temp 72°f
  • Sea Pressure 1015.2mb
  • Santa Monica Basin - 33nm Wsw Of Santa Monica, Ca
  • Santa Monica Basin - 33nm Wsw Of Santa Monica, Ca

More Historic Weather Station data

Upgrade to MSW Pro to gain access to the past 30 days of data for over 8000 Wavebouys and Weather Stations around the globe.

Join

Comparision Forecast

View Surf forecast
   
jue 08/17 3:20  -   -   -  9 11 mph 1015.2mb 72f
3:10  -   -   -  9 11 mph 1015.3mb 72f
3:00  -   -   -  7 9 mph 1015.4mb 72f
2:50 3ft 15s 7s 9 9 mph 1015.4mb 72f
2:40 3ft  -  7s 9 11 mph 1015.6mb 72f
2:30  -   -   -  9 11 mph 1015.7mb 72f
2:20  -   -   -  9 11 mph 1015.7mb 72f
2:10  -   -   -  9 13 mph 1015.7mb 72f
2:00  -   -   -  9 11 mph 1015.9mb 72f
1:50 3.5ft 16s 7s 9 11 mph 1016mb 72f
1:40 3.5ft  -  7s 9 11 mph 1016.2mb 72f
1:30  -   -   -  9 11 mph 1016.2mb 72f
1:20  -   -   -  7 9 mph 1016.2mb 72f
1:10  -   -   -  7 9 mph 1016.2mb 72f
1:00  -   -   -  9 11 mph 1016.2mb 72f
12:50 3.5ft 17s 7s 7 9 mph 1016.3mb 72f
12:40 3.5ft  -  7s 7 9 mph 1016.5mb 72f
12:30  -   -   -  7 9 mph 1016.6mb 72f
12:20  -   -   -  7 9 mph 1016.6mb 72f
12:10  -   -   -  7 9 mph 1016.6mb 71f
12:00  -   -   -  7 9 mph 1016.7mb 71f
11:50 3ft  -  7s 7 11 mph 1016.8mb -
11:40 3ft 15s 7s  -  mph - 71f
11:30  -   -   -  7 9 mph 1016.8mb 71f
11:20  -   -   -  4 7 mph 1016.8mb 71f
11:10  -   -   -  2 4 mph 1016.8mb 71f
11:00  -   -   -  2 4 mph 1016.8mb 71f
10:50 3.5ft 16s 7s 2 4 mph 1016.8mb 71f
10:40  -   -   -  2 4 mph 1016.9mb 71f
10:30  -   -   -   -  2 mph 1016.8mb 71f
10:20  -   -   -  2 2 mph 1016.8mb 71f
10:10  -   -   -   -  2 mph 1016.9mb 71f
10:00  -   -   -   -  2 mph 1016.8mb 71f
9:50 3ft 15s 6s 2 4 mph 1016.8mb 71f
9:40  -   -   -   -  2 mph 1016.7mb 71f
9:30  -   -   -   -  2 mph 1016.7mb 71f
9:20  -   -   -   -  2 mph 1016.5mb 71f
9:10  -   -   -   -  2 mph 1016.5mb 71f
9:00  -   -   -   -  2 mph 1016.4mb 71f
8:50 3.5ft 16s 7s  -  2 mph 1016.4mb 70f
8:40 3.5ft  -  7s  -  2 mph 1016.4mb 70f
8:30  -   -   -   -  2 mph 1016.3mb 70f
8:20  -   -   -   -  2 mph 1016.2mb 70f
8:10  -   -   -   -  2 mph 1016.1mb 70f
8:00  -   -   -  2 4 mph 1016mb 70f
7:50 3ft 15s 7s 2 4 mph 1015.9mb 70f
7:40  -   -   -  4 4 mph 1015.8mb 70f
7:30  -   -   -  4 7 mph 1015.7mb 70f
7:20  -   -   -  4 7 mph 1015.5mb 70f
7:10  -   -   -  4 7 mph 1015.4mb 70f
7:00  -   -   -  7 9 mph 1015.3mb 70f
6:50 3ft 15s 6s 7 9 mph 1015.2mb 70f
6:40  -   -   -  7 7 mph 1015.2mb 70f
6:30  -   -   -  7 9 mph 1015.1mb 70f
6:20  -   -   -  7 9 mph 1015.1mb -
6:10  -   -   -  7 9 mph 1014.9mb 70f
6:00  -   -   -  7 9 mph 1014.9mb 70f
5:50 3.5ft 16s 7s 7 11 mph 1014.7mb 70f
5:40 3.5ft  -  7s 7 9 mph 1014.6mb 70f
5:30  -   -   -  7 11 mph 1014.5mb 70f
5:20  -   -   -  7 9 mph 1014.4mb 70f
5:10  -   -   -  7 9 mph 1014.4mb 70f
5:00  -   -   -  7 9 mph 1014.3mb 70f
4:50 3.5ft 16s 6s 9 11 mph 1014.2mb 70f
4:40 3.5ft  -  6s 9 9 mph 1014.2mb 70f
4:30  -   -   -  7 9 mph 1014.2mb 70f
4:20  -   -   -  9 11 mph 1014.3mb 70f
4:10  -   -   -  9 11 mph 1014.2mb 70f
4:00  -   -   -  9 11 mph 1014.2mb 70f
3:50 3.5ft 15s 6s 11 11 mph 1014.2mb 70f
3:40 3.5ft  -  6s 11 11 mph 1014.3mb 70f
3:30  -   -   -  9 11 mph 1014.3mb 71f
3:20  -   -   -  11 11 mph 1014.3mb 71f
3:10  -   -   -  9 11 mph 1014.3mb 71f
3:00  -   -   -  9 11 mph 1014.3mb 71f
2:50 3.5ft 16s 6s 9 11 mph 1014.3mb 70f
2:40  -   -   -  9 11 mph 1014.3mb 70f
2:30  -   -   -  9 11 mph 1014.3mb -
2:20  -   -   -  9 13 mph 1014.3mb 70f
2:10  -   -   -  9 11 mph 1014.3mb 70f
2:00  -   -   -  9 11 mph 1014.3mb 70f
1:50 4ft 15s 6s 9 11 mph 1014.3mb 70f
1:40 4ft  -  6s 9 11 mph 1014.3mb 70f
1:30  -   -   -  9 11 mph 1014.4mb 70f
1:20  -   -   -  7 9 mph 1014.5mb -
1:10  -   -   -  7 9 mph 1014.5mb 70f
1:00  -   -   -  7 9 mph 1014.5mb 70f
12:50 4ft 16s 6s 7 11 mph 1014.5mb 70f
12:40 4ft  -  6s 7 9 mph 1014.4mb 70f
12:30  -   -   -  7 9 mph 1014.4mb 70f
12:20  -   -   -  7 9 mph 1014.5mb 70f
12:10  -   -   -  7 9 mph 1014.4mb 70f
12:00  -   -   -  9 9 mph 1014.3mb 70f
mié 08/16 11:50 3.5ft 16s 5s 7 11 mph 1014.4mb 70f
11:40  -   -   -  7 9 mph 1014.5mb 70f
11:30  -   -   -  9 11 mph 1014.4mb 70f
11:20  -   -   -  9 11 mph 1014.4mb -
11:10  -   -   -  11 13 mph 1014.4mb -
11:00  -   -   -  11 13 mph 1014.3mb 70f
10:50 4ft 16s 6s 11 13 mph 1014.3mb 70f
10:40 4ft  -  6s 11 16 mph 1014.3mb 70f
10:30  -   -   -  13 16 mph 1014.3mb 70f
10:20  -   -   -  13 16 mph 1014.3mb 70f
10:10  -   -   -  13 16 mph 1014.3mb 70f
10:00  -   -   -  13 18 mph 1014.3mb 70f
9:50 3.5ft 15s 6s 13 16 mph 1014.2mb 70f
9:40 3.5ft  -  6s 13 16 mph 1014.1mb 70f
9:30  -   -   -  13 16 mph 1014.1mb -
9:20  -   -   -  13 16 mph 1014mb 70f
9:10  -   -   -  11 16 mph 1013.8mb 70f
9:00  -   -   -  13 16 mph 1013.8mb 70f
8:50 3.5ft 15s 6s 13 16 mph 1013.7mb 70f
8:40  -   -   -  13 16 mph 1013.7mb 70f
8:30  -   -   -  13 16 mph 1013.7mb 71f
8:20  -   -   -  13 16 mph 1013.6mb 71f
8:10  -   -   -  13 16 mph 1013.5mb 71f
8:00  -   -   -  13 16 mph 1013.5mb 71f
7:50 3.5ft 16s 7s 11 16 mph 1013.4mb 71f
7:40 3.5ft  -  7s 11 13 mph 1013.4mb 71f
7:30  -   -   -  11 13 mph 1013.4mb 71f
7:20  -   -   -  11 13 mph 1013.3mb 71f
7:10  -   -   -  11 13 mph 1013.2mb 72f
7:00  -   -   -  11 13 mph 1013.2mb 72f
6:30 3.5ft  -  8s 7 9 mph 1013.2mb 72f
6:20  -   -   -  7 9 mph 1013.2mb 72f
6:10  -   -   -  7 9 mph 1013.3mb 72f
6:00  -   -   -  4 9 mph 1013.3mb 71f
5:50 3.5ft 15s 8s 4 9 mph 1013.5mb 72f
5:40 3.5ft  -  8s 4 7 mph 1013.6mb 72f
5:30  -   -   -  4 9 mph 1013.7mb 73f
5:20  -   -   -  4 7 mph 1013.8mb 73f
5:10  -   -   -  4 7 mph 1013.8mb 73f
5:00  -   -   -  4 7 mph 1013.9mb 73f
4:50 3.5ft 16s 8s 4 7 mph 1013.9mb 73f
4:40  -   -   -  4 7 mph 1013.9mb 72f
4:30  -   -   -  4 7 mph 1014mb 72f
4:20  -   -   -  4 7 mph 1014mb 73f
4:10  -   -   -  4 7 mph 1014mb 73f
4:00  -   -   -  4 7 mph 1014mb 73f
3:50 3.5ft 17s 7s 4 7 mph 1014.1mb 73f
3:40 3.5ft  -  7s 4 9 mph 1014.1mb 73f
3:30  -   -   -  4 7 mph 1014.2mb 73f
3:20  -   -   -  4 7 mph 1014.3mb 73f
3:10  -   -   -  4 7 mph 1014.3mb 73f
3:00  -   -   -  4 7 mph 1014.5mb 73f
2:50 3.5ft 15s 7s 4 7 mph 1014.6mb 72f
2:40 3.5ft  -  7s 4 7 mph 1014.7mb 72f
2:30  -   -   -  4 7 mph 1014.8mb 72f
2:20  -   -   -  4 7 mph 1014.8mb 72f
2:10  -   -   -  4 7 mph 1014.9mb 72f
2:00  -   -   -  4 7 mph 1015mb 72f
1:50 3.5ft 17s 7s 4 7 mph 1015mb 72f
1:40 3.5ft  -  7s 4 7 mph 1015mb 72f
1:30  -   -   -  4 7 mph 1015.1mb 72f
1:20  -   -   -  4 7 mph 1015.1mb 72f
1:10  -   -   -  4 7 mph 1015.2mb 72f
1:00  -   -   -  4 7 mph 1015.3mb 71f
12:50 3.5ft 17s 7s 4 7 mph 1015.4mb 72f
12:40  -   -   -  4 7 mph 1015.4mb 71f
12:30  -   -   -  4 7 mph 1015.5mb 71f
12:20  -   -   -  4 7 mph 1015.5mb 71f
12:10  -   -   -  4 7 mph 1015.6mb 71f
12:00  -   -   -  4 7 mph 1015.6mb -
11:50 3.5ft 16s 7s 4 9 mph 1015.6mb 71f
11:40  -   -   -  4 7 mph 1015.6mb 70f
11:30  -   -   -  4 7 mph 1015.5mb 70f
11:20  -   -   -  4 7 mph 1015.5mb 70f
11:10  -   -   -  2 4 mph 1015.5mb 70f
11:00  -   -   -   -  2 mph 1015.4mb 70f
10:50 3.5ft 15s 7s 2 2 mph 1015.5mb 70f
10:40 3.5ft  -  7s  -  0 mph 1015.5mb 70f
10:30  -   -   -   -  2 mph 1015.4mb 70f
10:20  -   -   -   -  2 mph 1015.4mb -
10:10  -   -   -  2 4 mph 1015.3mb 70f
10:00  -   -   -  2 4 mph 1015.3mb 70f
9:50 3.5ft 16s 7s 4 7 mph 1015.2mb 70f
9:40  -   -   -  4 7 mph 1015.1mb 70f
9:30  -   -   -  4 7 mph 1015.1mb 70f
9:20  -   -   -  2 4 mph 1015.2mb 70f
9:10  -   -   -  2 4 mph 1015.1mb 70f
9:00  -   -   -  4 4 mph 1015.1mb 70f
8:50 3.5ft 17s 7s 4 7 mph 1015.1mb 70f
8:40 3.5ft  -  7s 4 7 mph 1015.1mb 70f
8:30  -   -   -  4 7 mph 1015mb 70f
8:20  -   -   -  4 7 mph 1015mb 70f
8:10  -   -   -  2 4 mph 1014.9mb 70f
8:00  -   -   -  4 7 mph 1014.8mb 70f
7:50 3ft 17s 7s 7 9 mph 1014.8mb 70f
7:40 3ft  -  7s 4 7 mph 1014.6mb 70f
7:30  -   -   -  7 9 mph 1014.6mb 70f
7:20  -   -   -  4 7 mph 1014.5mb 71f
7:10  -   -   -  7 9 mph 1014.4mb 71f
7:00  -   -   -  4 9 mph 1014.3mb 71f
6:50 3.5ft 17s 6s 4 9 mph 1014.1mb 71f
6:40 3.5ft  -  6s 4 7 mph 1014mb 71f
6:30  -   -   -  4 7 mph 1014mb 71f
6:20  -   -   -  4 7 mph 1014mb 71f
6:10  -   -   -  4 9 mph 1013.8mb 71f
6:00  -   -   -  7 9 mph 1013.8mb 71f
5:50 3.5ft 15s 6s 7 9 mph 1013.7mb 71f
5:40  -   -   -  7 11 mph 1013.7mb 71f
5:30  -   -   -  7 9 mph 1013.6mb 71f
5:20  -   -   -  9 11 mph 1013.5mb 71f
5:10  -   -   -  9 11 mph 1013.4mb 71f
5:00  -   -   -  9 11 mph 1013.4mb 71f
4:50 3.5ft 17s 6s 9 11 mph 1013.3mb 71f
4:40 3.5ft  -  6s 9 11 mph 1013.2mb 71f
4:30  -   -   -  9 11 mph 1013.2mb 71f
4:20  -   -   -  4 9 mph 1013.1mb 71f
4:10  -   -   -  2 4 mph 1013.2mb 71f
4:00  -   -   -  2 4 mph 1013.2mb 71f
3:50 3.5ft 17s 5s 2 4 mph 1013.1mb 71f
3:40  -   -   -  4 7 mph 1013.1mb 71f
3:30  -   -   -  4 7 mph 1013.2mb -
3:20  -   -   -  4 7 mph 1013.1mb 70f
3:10  -   -   -  7 9 mph 1013.1mb 70f
3:00  -   -   -  7 9 mph 1012.9mb 70f
2:50 3.5ft 17s 5s 9 11 mph 1012.9mb 70f
2:40 3.5ft  -  5s 9 9 mph 1013mb 70f
2:30  -   -   -  7 9 mph 1013mb 70f
2:20  -   -   -  4 9 mph 1013mb 70f
2:10  -   -   -  4 7 mph 1013.1mb 70f
2:00  -   -   -  4 7 mph 1013.1mb 70f
1:50 3.5ft 17s 6s 4 7 mph 1013mb 70f
1:40 3.5ft  -  6s 4 7 mph 1013.2mb 70f
1:30  -   -   -  4 4 mph 1013.2mb 70f
1:20  -   -   -  2 4 mph 1013.2mb 70f
1:10  -   -   -  2 4 mph 1013.1mb 70f
1:00  -   -   -  2 4 mph 1013.2mb 70f
12:50 3.5ft 16s 6s 2 4 mph 1013.1mb 70f
12:40 3.5ft  -  6s  -  2 mph 1013.1mb 70f
12:30  -   -   -   -  2 mph 1013.1mb 70f
12:20  -   -   -   -  2 mph 1013.1mb 70f
12:10  -   -   -   -  2 mph 1013.2mb 70f
12:00  -   -   -   -  2 mph 1013.2mb 70f
mar 08/15 11:50 3.5ft 15s 6s  -  2 mph 1013.1mb 70f
11:40 3.5ft  -  6s 2 2 mph 1013.1mb 70f
11:30  -   -   -  2 4 mph 1013mb -
11:20  -   -   -  2 4 mph 1013mb 70f
11:10  -   -   -  4 7 mph 1012.9mb 70f
11:00  -   -   -  4 4 mph 1012.9mb 70f
10:50 3.5ft 16s 6s 4 7 mph 1013mb 70f
10:40  -   -   -  7 9 mph 1012.9mb 70f
10:30  -   -   -  7 9 mph 1012.9mb 70f
10:20  -   -   -  7 9 mph 1012.9mb 69f
10:10  -   -   -  7 9 mph 1012.9mb 69f
10:00  -   -   -  7 9 mph 1012.8mb 69f
9:50 3ft 17s 5s 4 7 mph 1012.8mb 69f
9:40 3ft  -  5s 4 7 mph 1012.7mb 69f
9:30  -   -   -  4 7 mph 1012.6mb 69f
9:20  -   -   -  4 7 mph 1012.4mb 69f
9:10  -   -   -  4 7 mph 1012.4mb 69f
9:00  -   -   -  4 7 mph 1012.2mb 69f
8:50 3.5ft 19s 5s 4 7 mph 1012.1mb 69f
8:40 3.5ft  -  5s 7 9 mph 1012.1mb 69f
8:30  -   -   -  7 9 mph 1011.9mb 69f
8:20  -   -   -  9 11 mph 1011.9mb 69f
8:10  -   -   -  9 11 mph 1011.7mb 69f
8:00  -   -   -  9 11 mph 1011.6mb 70f
7:50 3ft 16s 5s 7 9 mph 1011.7mb 70f
7:30  -   -   -  9 11 mph 1011.7mb 71f
7:20  -   -   -  9 11 mph 1011.6mb 71f
7:10  -   -   -  9 13 mph 1011.6mb 71f
7:00  -   -   -  9 13 mph 1011.6mb 71f
6:50 2.5ft 17s 5s 9 11 mph 1011.6mb 71f
6:40 2.5ft  -  5s 9 13 mph 1011.6mb 71f
6:30  -   -   -  11 13 mph 1011.6mb 71f
6:20  -   -   -  11 13 mph 1011.6mb 71f
6:10  -   -   -  11 13 mph 1011.6mb 71f
6:00  -   -   -  11 13 mph 1011.7mb 71f
5:50 2.5ft 15s 6s 11 13 mph 1011.7mb 71f
5:40  -   -   -  9 11 mph 1011.8mb 71f
5:30  -   -   -  4 9 mph 1011.8mb 71f
5:20  -   -   -  4 9 mph 1011.8mb -
5:10  -   -   -  2 7 mph 1012mb 71f
5:00  -   -   -  4 7 mph 1011.9mb 71f
4:50 2.5ft 19s 6s 4 7 mph 1012mb 71f
4:40  -   -   -  4 7 mph 1011.9mb 72f
4:30  -   -   -  4 7 mph 1012mb 71f
4:20  -   -   -  2 7 mph 1012.2mb 71f
4:10  -   -   -  2 4 mph 1012.2mb 71f
4:00  -   -   -   -  2 mph 1012.3mb 71f
3:50 2.5ft 16s 6s 2 4 mph 1012.3mb 71f
3:30  -   -   -  2 2 mph 1012.4mb -
3:20  -   -   -  2 4 mph 1012.4mb 71f
3:10  -   -   -  2 4 mph 1012.4mb 71f
3:00  -   -   -   -  2 mph 1012.5mb 71f
2:50 2.5ft 19s 5s  -  2 mph 1012.5mb 71f
2:40 2.5ft  -  5s  -  2 mph 1012.6mb 71f
2:30  -   -   -  2 4 mph 1012.6mb 71f
2:20  -   -   -  2 4 mph 1012.7mb 71f
2:10  -   -   -  2 4 mph 1012.8mb 71f
2:00  -   -   -  2 4 mph 1012.9mb 71f
1:50 3ft 16s 5s 2 4 mph 1012.9mb 71f
1:40  -   -   -   -  2 mph 1012.9mb 71f
1:30  -   -   -   -  2 mph 1012.9mb 71f
1:20  -   -   -  2 2 mph 1013mb 71f
1:10  -   -   -   -  2 mph 1013.1mb 71f
1:00  -   -   -   -  2 mph 1013.1mb 71f
12:50 3ft 16s 5s 2 4 mph 1013mb 71f
12:40  -   -   -   -  2 mph 1013.1mb 71f
12:30  -   -   -   -  2 mph 1013.1mb 71f
12:20  -   -   -   -  2 mph 1013.2mb -
12:10  -   -   -  2 4 mph 1013.3mb 71f
12:00  -   -   -  2 4 mph 1013.4mb -
11:50 3ft 17s 5s 2 4 mph 1013.4mb 71f
11:40 3ft  -  5s 2 4 mph 1013.4mb 71f
11:30  -   -   -  2 4 mph 1013.3mb 70f
11:20  -   -   -  2 4 mph 1013.4mb -
11:10  -   -   -  2 4 mph 1013.3mb 70f
11:00  -   -   -  2 4 mph 1013.2mb 70f
10:50 3ft 5s 5s 2 4 mph 1013.2mb 70f
10:40  -   -   -  2 4 mph 1013.2mb 70f
10:30  -   -   -   -  4 mph 1013.1mb 70f
10:20  -   -   -   -  2 mph 1013mb 69f
10:10  -   -   -  2 4 mph 1012.9mb 69f
10:00  -   -   -  2 2 mph 1012.9mb 69f
9:50 3ft 6s 5s  -  2 mph 1012.9mb 69f
9:40  -   -   -   -  2 mph 1012.8mb 69f
9:30  -   -   -   -  2 mph 1012.8mb 69f
9:20  -   -   -   -  2 mph 1012.7mb 69f
9:10  -   -   -   -  4 mph 1012.7mb 69f
9:00  -   -   -   -  2 mph 1012.7mb 69f
8:50 3ft 6s 5s  -  2 mph 1012.6mb 69f
8:40 3ft  -  5s  -  2 mph 1012.5mb 69f
8:30  -   -   -  2 4 mph 1012.5mb 69f
8:20  -   -   -   -  2 mph 1012.3mb 69f
8:10  -   -   -  4 7 mph 1012.2mb 69f
8:00  -   -   -  4 7 mph 1012.2mb 69f
7:50 3.5ft 6s 5s 4 4 mph 1012.2mb 69f
7:40  -   -   -  4 9 mph 1012.1mb 69f
7:30  -   -   -  7 9 mph 1012.1mb 69f
7:20  -   -   -  7 9 mph 1012mb 69f
7:10  -   -   -  4 7 mph 1011.9mb 69f
7:00  -   -   -  4 7 mph 1011.7mb 69f
6:50 3.5ft 6s 5s 4 9 mph 1011.6mb 69f
6:40  -   -   -  4 9 mph 1011.6mb 69f
6:30  -   -   -  4 7 mph 1011.6mb 69f
6:20  -   -   -  4 9 mph 1011.6mb -
6:10  -   -   -  4 9 mph 1011.6mb 69f
6:00  -   -   -  7 9 mph 1011.4mb 69f
5:50 3.5ft 6s 6s 7 9 mph 1011.4mb 69f
5:40  -   -   -  4 11 mph 1011.3mb 69f
5:30  -   -   -  9 11 mph 1011.2mb 69f
5:20  -   -   -  7 11 mph 1011.3mb 69f
5:10  -   -   -  7 11 mph 1011.2mb 69f
5:00  -   -   -  9 13 mph 1011.3mb 69f
4:50 3.5ft 6s 5s 9 11 mph 1011.2mb 69f
4:40  -   -   -  9 11 mph 1011.2mb 69f
4:30  -   -   -  9 13 mph 1011.3mb 69f
4:20  -   -   -  9 13 mph 1011.3mb 69f
4:10  -   -   -  11 13 mph 1011.3mb 69f
4:00  -   -   -  13 16 mph 1011.1mb 68f
3:50 3.5ft 5s 5s 13 16 mph 1011.1mb 68f
3:40 3.5ft  -  5s 13 18 mph 1011.1mb 68f
3:30  -   -   -  13 18 mph 1011.1mb -
3:20  -   -   -  13 18 mph 1011.1mb 68f
3:10  -   -   -  13 18 mph 1011.2mb 68f
3:00  -   -   -  13 16 mph 1011.1mb 68f
2:50 3.5ft 6s 5s 13 18 mph 1011.2mb 68f
2:40 3.5ft  -  5s 13 18 mph 1011.2mb 68f
2:30  -   -   -  13 16 mph 1011.3mb 68f
2:20  -   -   -  13 16 mph 1011.3mb 68f
2:10  -   -   -  11 16 mph 1011.5mb 68f
2:00  -   -   -  11 16 mph 1011.4mb 68f
1:50 4ft 6s 5s 11 16 mph 1011.4mb 68f
1:40  -   -   -  13 16 mph 1011.3mb 68f
1:30  -   -   -  13 18 mph 1011.4mb 68f
1:20  -   -   -  13 18 mph 1011.4mb 68f
1:10  -   -   -  16 18 mph 1011.3mb 68f
1:00  -   -   -  13 18 mph 1011.5mb 68f
12:50 3.5ft 6s 5s 9 16 mph 1011.5mb 68f
12:40 3.5ft  -  5s 2 7 mph 1011.5mb 68f
12:30  -   -   -  2 9 mph 1011.5mb 68f
12:20  -   -   -  7 11 mph 1011.6mb 68f
12:10  -   -   -  9 13 mph 1011.6mb 68f
12:00  -   -   -  9 13 mph 1011.6mb 68f
lun 08/14 11:50 3.5ft 6s 5s 11 16 mph 1011.5mb 68f
11:40 3.5ft  -  5s 13 16 mph 1011.5mb 68f
11:30  -   -   -  13 16 mph 1011.5mb 69f
11:20  -   -   -  11 16 mph 1011.3mb -
11:10  -   -   -  11 13 mph 1011.3mb 69f
11:00  -   -   -  11 13 mph 1011.3mb 69f
10:50 3.5ft 6s 5s 11 13 mph 1011.3mb 69f
10:40  -   -   -  11 13 mph 1011.4mb 69f
10:30  -   -   -  11 13 mph 1011.4mb 69f
10:20  -   -   -  11 13 mph 1011.5mb 69f
10:10  -   -   -  11 13 mph 1011.4mb 69f
10:00  -   -   -  11 13 mph 1011.4mb 69f
9:50 3.5ft 5s 5s 11 13 mph 1011.3mb 69f
9:40 3.5ft  -  5s 11 13 mph 1011.4mb 68f
9:30  -   -   -  11 16 mph 1011.5mb 68f
9:20  -   -   -  11 16 mph 1011.4mb 69f
9:10  -   -   -  11 16 mph 1011.3mb 69f
9:00  -   -   -  13 18 mph 1011.2mb 69f
8:50 3.5ft 4s 5s 16 20 mph 1011.1mb 69f
8:40 3.5ft  -  5s 16 18 mph 1011mb 69f
8:30  -   -   -  13 16 mph 1011mb 69f
8:20  -   -   -  13 16 mph 1010.8mb 69f
8:10  -   -   -  13 16 mph 1010.7mb 69f
8:00  -   -   -  16 20 mph 1010.6mb 69f
7:50 3ft 4s 5s 16 20 mph 1010.6mb 69f
7:40 3ft  -  5s 16 18 mph 1010.7mb 69f
7:30  -   -   -  16 18 mph 1010.7mb 69f
7:20  -   -   -  16 18 mph 1010.8mb 70f
7:10  -   -   -  13 18 mph 1010.8mb 70f
7:00  -   -   -  13 18 mph 1010.9mb 70f
6:50 2.5ft 11s 4s 13 16 mph 1010.7mb 70f
6:40  -   -   -  13 16 mph 1010.8mb 70f
6:30  -   -   -  11 16 mph 1010.8mb 70f
6:20  -   -   -  11 16 mph 1010.8mb 70f
6:10  -   -   -  11 13 mph 1010.8mb 70f
6:00  -   -   -  11 13 mph 1010.9mb 70f
5:50 2.5ft 13s 5s 11 16 mph 1010.9mb 70f
4:50 2.5ft 13s 5s 11 13 mph 1011.3mb 71f
4:40 2.5ft  -  5s 11 13 mph 1011.2mb 71f
4:30  -   -   -  13 16 mph 1011.1mb 71f
4:20  -   -   -  11 13 mph 1011.2mb 71f
4:10  -   -   -  11 16 mph 1011.3mb 71f
4:00  -   -   -  11 16 mph 1011.5mb 71f
3:50 2.5ft 15s 5s 13 16 mph 1011.6mb 71f
3:40 2.5ft  -  5s 13 16 mph 1011.7mb 71f
3:30  -   -   -  13 16 mph 1011.8mb 71f
3:20  -   -   -  13 16 mph 1011.8mb 71f
3:10  -   -   -  13 16 mph 1011.9mb 71f
3:00  -   -   -  13 16 mph 1012.1mb 71f
2:50 2.5ft 11s 5s 13 16 mph 1012.1mb 71f
2:40 2.5ft  -  5s 13 13 mph 1012.1mb 71f
2:30  -   -   -  11 13 mph 1012.1mb 71f
2:20  -   -   -  11 13 mph 1012.1mb 71f
2:10  -   -   -  11 13 mph 1012.2mb 71f
2:00  -   -   -  11 13 mph 1012.4mb 71f
1:50 2.5ft  -  5s 9 11 mph 1012.5mb 71f
1:40  -   -   -  7 9 mph 1012.4mb 71f
1:30  -   -   -  7 9 mph 1012.5mb 71f
1:20  -   -   -  7 9 mph 1012.7mb 71f
1:10  -   -   -  7 9 mph 1012.7mb 71f
1:00  -   -   -  7 9 mph 1012.9mb 71f
12:50 2.5ft 13s 5s 7 9 mph 1013mb 71f
12:40 2.5ft  -  5s 7 9 mph 1013.1mb 71f
12:30  -   -   -  7 9 mph 1013mb 71f
12:20  -   -   -  7 9 mph 1012.9mb 71f
12:10  -   -   -  7 9 mph 1013mb 71f
12:00  -   -   -  7 9 mph 1013mb 72f
11:50 3ft 5s 5s 7 9 mph 1013mb 71f
11:40  -   -   -  7 9 mph 1013.2mb 72f
11:30  -   -   -  9 11 mph 1013.1mb 72f
11:20  -   -   -  7 9 mph 1013.1mb 72f
11:10  -   -   -  7 11 mph 1013.2mb 72f
11:00  -   -   -  4 7 mph 1013.1mb 72f
10:50 2.5ft 6s 5s 2 7 mph 1013.2mb 72f
10:40 2.5ft  -  5s 2 4 mph 1013.2mb 72f
10:30  -   -   -  2 4 mph 1013.2mb 72f
10:20  -   -   -   -  2 mph 1013.2mb 72f
10:10  -   -   -  2 4 mph 1013.2mb 72f
10:00  -   -   -   -  2 mph 1013.2mb 72f
9:50 3ft 6s 6s 2 4 mph 1013.2mb 72f
9:40  -   -   -   -  2 mph 1013.1mb 72f
9:30  -   -   -   -  0 mph 1013.1mb -
9:20  -   -   -   -  2 mph 1012.9mb 72f
9:10  -   -   -   -  2 mph 1012.9mb 72f
9:00  -   -   -  2 4 mph 1012.9mb 72f
8:50 3ft 7s 5s 4 7 mph 1012.9mb 72f
8:40 3ft  -  5s 4 4 mph 1012.9mb 72f
8:30  -   -   -  4 4 mph 1012.9mb 72f
8:20  -   -   -  4 7 mph 1012.9mb 72f
8:10  -   -   -  4 7 mph 1012.7mb 71f
8:00  -   -   -  2 4 mph 1012.7mb 71f
7:50 3ft 7s 6s 4 7 mph 1012.7mb 71f
7:40 3ft  -  6s 4 4 mph 1012.6mb 71f
7:30  -   -   -  4 7 mph 1012.6mb 71f
7:20  -   -   -  4 11 mph 1012.6mb 71f
7:10  -   -   -  7 9 mph 1012.4mb 71f
7:00  -   -   -  4 7 mph 1012.3mb 71f
6:50 3ft 7s 6s 7 9 mph 1012.1mb 71f
6:40  -   -   -  7 9 mph 1012.1mb 71f
6:30  -   -   -  4 9 mph 1012mb 70f
6:20  -   -   -  4 7 mph 1011.8mb 70f
6:10  -   -   -  4 9 mph 1011.9mb 70f
6:00  -   -   -  7 9 mph 1012mb 70f
5:50 3ft 6s 6s 4 11 mph 1011.9mb 70f
5:40 3ft  -  6s 7 11 mph 1011.8mb 70f
5:30  -   -   -  7 9 mph 1011.8mb 70f
5:20  -   -   -  7 11 mph 1011.7mb 70f
5:10  -   -   -  4 9 mph 1011.8mb 70f
5:00  -   -   -  7 11 mph 1011.8mb 70f
4:50 2.5ft 13s 6s 9 11 mph 1011.8mb 70f
4:40 2.5ft  -  6s 9 11 mph 1011.8mb 70f
4:30  -   -   -  7 11 mph 1011.7mb 70f
4:20  -   -   -  9 11 mph 1011.6mb 70f
4:10  -   -   -  9 11 mph 1011.7mb 70f
4:00  -   -   -  7 11 mph 1011.7mb 69f
3:50 3.5ft 6s 5s 7 9 mph 1011.9mb 69f
3:40 3.5ft  -  5s 7 11 mph 1011.9mb 69f
3:30  -   -   -  4 9 mph 1012.1mb 69f
3:20  -   -   -  4 7 mph 1012.1mb 69f
3:10  -   -   -  4 4 mph 1012.1mb 69f
3:00  -   -   -  4 9 mph 1012.1mb 69f
2:50 3ft 6s 5s 2 4 mph 1012.1mb 69f
2:40 3ft  -  5s 4 9 mph 1012.1mb 69f
2:30  -   -   -  4 9 mph 1012.1mb 69f
2:20  -   -   -  4 9 mph 1012.2mb 69f
2:10  -   -   -  2 7 mph 1012.2mb 69f
2:00  -   -   -  2 4 mph 1012.1mb 68f
1:50 3.5ft 6s 5s 2 7 mph 1012.2mb 68f
1:40 3.5ft  -  5s 4 7 mph 1012.3mb 68f
1:30  -   -   -  4 4 mph 1012.4mb 68f
1:20  -   -   -  4 7 mph 1012.5mb -
1:10  -   -   -  2 4 mph 1012.4mb 68f
1:00  -   -   -  4 4 mph 1012.3mb 68f
12:50 3.5ft 5s  -  2 4 mph 1012.4mb 68f
12:40  -   -   -  2 4 mph 1012.4mb 68f
12:30  -   -   -  4 7 mph 1012.4mb 68f
12:20  -   -   -  4 7 mph 1012.4mb 68f
12:10  -   -   -  4 7 mph 1012.4mb 68f
12:00  -   -   -  4 7 mph 1012.4mb 68f
dom 08/13 11:50 3.5ft 5s 5s 4 7 mph 1012.5mb 68f
11:40 3.5ft  -  5s 2 4 mph 1012.6mb 68f
11:30  -   -   -  2 4 mph 1012.5mb 68f
11:20  -   -   -  4 7 mph 1012.4mb 68f